Terminal Aerodrome Forecast
Issued by NWS Shreveport, LA

Home | Current Version | Previous Version | Text Only | Print | Product List | Glossary On
Versions: 1 2 3 4 5 6 7 8 9 10 11 12 13
000
FTUS44 KSHV 162300
TAFELD
TAF
KELD 162324Z 1700/1724 VRB03KT P6SM BKN250
     FM170600 00000KT P6SM SKC
     FM171500 13006KT P6SM SCT250
     FM171800 13007KT P6SM SCT045 BKN250=

USA.gov is the U.S. government's official web portal to all federal, state and local government web resources and services.